Time;durP1;ratioP1;P1;durP2;ratioP2;P2;SDS_P1;SDS_P2;PMS_P1;PMS_P2;Temp;Humidity;BMP_temperature;BMP_pressure;BME280_temperature;BME280_humidity;BME280_pressure;Samples;Min_cycle;Max_cycle;Signal;HPM_P1;HPM_P2
2023/03/02 00:01:27;;;;;;;32.37;19.97;;;;;;;-0.50;78.68;95596.09;5041283;28;20194;-79
2023/03/02 00:03:53;;;;;;;34.73;20.83;;;;;;;-0.45;77.92;95595.84;5027535;28;20189;-80
2023/03/02 00:06:18;;;;;;;32.43;20.50;;;;;;;-0.50;77.84;95602.94;5022089;28;20558;-80
2023/03/02 00:08:44;;;;;;;32.63;20.93;;;;;;;-0.49;78.38;95602.84;5034161;28;20210;-80
2023/03/02 00:11:10;;;;;;;36.27;21.57;;;;;;;-0.49;77.96;95602.84;5024548;28;20178;-78
2023/03/02 00:13:37;;;;;;;32.27;20.53;;;;;;;-0.41;78.20;95599.91;5022043;28;20574;-78
2023/03/02 00:16:02;;;;;;;32.70;20.07;;;;;;;-0.47;78.35;95603.59;5031835;28;20209;-80
2023/03/02 00:18:28;;;;;;;30.83;19.13;;;;;;;-0.44;77.81;95595.78;5036906;28;20262;-78
2023/03/02 00:20:53;;;;;;;36.17;22.00;;;;;;;-0.51;78.20;95597.00;5045409;28;20189;-80
2023/03/02 00:23:18;;;;;;;34.60;21.40;;;;;;;-0.54;78.95;95596.31;5024910;28;20190;-78
2023/03/02 00:25:44;;;;;;;34.10;20.10;;;;;;;-0.59;78.66;95587.19;5034222;28;20621;-77
2023/03/02 00:28:09;;;;;;;34.13;20.90;;;;;;;-0.61;78.84;95589.00;5034028;28;20194;-78
2023/03/02 00:30:36;;;;;;;33.33;20.70;;;;;;;-0.64;79.08;95589.16;5010828;28;20171;-77
2023/03/02 00:33:01;;;;;;;32.20;20.43;;;;;;;-0.67;80.00;95591.03;5037229;28;20261;-77
2023/03/02 00:35:27;;;;;;;37.60;21.73;;;;;;;-0.63;80.06;95589.97;5041360;28;20221;-78
2023/03/02 00:37:52;;;;;;;33.87;21.20;;;;;;;-0.59;78.60;95587.19;5028655;28;20217;-79
2023/03/02 00:40:17;;;;;;;35.13;21.00;;;;;;;-0.60;78.98;95577.06;5017246;28;20191;-77
2023/03/02 00:42:43;;;;;;;38.80;22.43;;;;;;;-0.72;80.03;95580.25;5036353;28;20200;-78
2023/03/02 00:45:08;;;;;;;32.10;21.07;;;;;;;-0.71;79.55;95576.78;5030395;28;20220;-77
2023/03/02 00:47:35;;;;;;;34.87;20.77;;;;;;;-0.73;80.52;95566.66;5011793;28;20249;-78
2023/03/02 00:50:01;;;;;;;37.80;22.33;;;;;;;-0.76;80.08;95568.56;5036493;28;20185;-78
2023/03/02 00:52:28;;;;;;;37.63;21.63;;;;;;;-0.77;80.87;95572.84;5044203;28;20236;-76
2023/03/02 00:54:57;;;;;;;38.20;22.83;;;;;;;-0.75;81.05;95580.41;5039246;28;20234;-78
2023/03/02 00:57:22;;;;;;;38.20;22.20;;;;;;;-0.81;81.09;95580.72;5016876;28;20201;-77
2023/03/02 00:59:48;;;;;;;37.83;23.17;;;;;;;-0.88;81.81;95578.50;5034578;28;20198;-78
2023/03/02 01:02:13;;;;;;;35.50;23.03;;;;;;;-0.82;81.72;95567.13;5013620;28;20602;-77
2023/03/02 01:04:41;;;;;;;37.33;23.03;;;;;;;-0.83;81.79;95562.13;5037709;28;20710;-78
2023/03/02 01:07:11;;;;;;;43.03;22.73;;;;;;;-0.86;82.10;95568.22;5037947;28;20182;-79
2023/03/02 01:09:38;;;;;;;38.23;23.70;;;;;;;-0.88;82.15;95565.75;5036691;28;20216;-79
2023/03/02 01:12:08;;;;;;;39.07;24.00;;;;;;;-0.92;81.65;95558.31;5032825;28;20183;-79
2023/03/02 01:14:34;;;;;;;39.37;23.87;;;;;;;-0.94;81.86;95555.84;5031382;28;20222;-79
2023/03/02 01:16:59;;;;;;;41.53;24.67;;;;;;;-0.94;82.88;95555.03;5028677;28;20177;-78
2023/03/02 01:19:24;;;;;;;41.20;22.87;;;;;;;-0.97;82.97;95558.56;5015361;28;20273;-77
2023/03/02 01:21:49;;;;;;;41.50;24.13;;;;;;;-0.84;82.47;95556.19;5015141;28;20188;-79
2023/03/02 01:24:15;;;;;;;39.93;23.90;;;;;;;-0.88;82.31;95555.56;5019725;28;20233;-77
2023/03/02 01:26:40;;;;;;;41.23;23.93;;;;;;;-0.95;82.81;95549.09;5051231;28;20247;-78
2023/03/02 01:29:06;;;;;;;39.33;23.83;;;;;;;-0.96;83.59;95549.19;5026628;28;20200;-78
2023/03/02 01:31:31;;;;;;;39.07;24.00;;;;;;;-1.09;83.53;95545.59;5012359;28;20232;-77
2023/03/02 01:33:56;;;;;;;38.70;24.83;;;;;;;-1.07;83.11;95547.16;5033365;28;20251;-80
2023/03/02 01:36:22;;;;;;;41.83;25.17;;;;;;;-1.04;83.59;95554.69;5025581;28;20220;-77
2023/03/02 01:38:48;;;;;;;38.73;23.57;;;;;;;-1.10;83.95;95552.44;5026979;28;20193;-79
2023/03/02 01:41:13;;;;;;;40.97;25.50;;;;;;;-1.12;84.65;95546.59;5015059;28;20191;-79
2023/03/02 01:43:39;;;;;;;39.30;23.73;;;;;;;-1.20;84.84;95543.59;5015401;28;20275;-78
2023/03/02 01:46:19;;;;;;;42.20;25.47;;;;;;;-1.16;84.70;95534.88;5023651;28;20209;-79
2023/03/02 01:48:50;;;;;;;40.90;25.27;;;;;;;-1.17;84.70;95530.69;5028713;28;20186;-79
2023/03/02 01:51:19;;;;;;;39.53;25.73;;;;;;;-1.13;84.06;95537.28;5024656;28;20284;-78
2023/03/02 01:53:45;;;;;;;43.50;24.80;;;;;;;-1.26;85.22;95528.59;5035770;28;20221;-79
2023/03/02 01:56:16;;;;;;;44.60;25.37;;;;;;;-1.16;84.41;95524.69;5023591;28;20575;-79
2023/03/02 01:58:42;;;;;;;38.80;24.40;;;;;;;-1.17;84.73;95525.59;5033929;28;20237;-77
2023/03/02 02:01:14;;;;;;;40.00;25.77;;;;;;;-1.22;84.53;95523.28;5017071;28;20201;-79
2023/03/02 02:03:41;;;;;;;44.03;26.47;;;;;;;-1.19;85.40;95514.66;5010838;28;20185;-78
2023/03/02 02:06:24;;;;;;;42.00;25.03;;;;;;;-1.16;84.78;95517.88;5009778;28;20204;-77
2023/03/02 02:08:51;;;;;;;43.30;25.67;;;;;;;-1.28;85.06;95512.56;5034806;28;20662;-76
2023/03/02 02:11:17;;;;;;;41.50;24.93;;;;;;;-1.30;85.62;95516.94;5021733;28;20194;-78
2023/03/02 02:13:43;;;;;;;46.17;27.17;;;;;;;-1.29;85.15;95509.22;5010157;28;20224;-79
2023/03/02 02:16:08;;;;;;;42.17;25.80;;;;;;;-1.40;86.09;95515.75;5030780;28;20206;-78
2023/03/02 02:18:38;;;;;;;44.93;26.17;;;;;;;-1.31;85.03;95515.28;5020753;28;20211;-79
2023/03/02 02:21:04;;;;;;;44.43;25.70;;;;;;;-1.29;85.21;95505.84;5028332;28;20181;-78
2023/03/02 02:23:37;;;;;;;42.33;26.47;;;;;;;-1.31;84.68;95502.56;5037863;28;20186;-77
2023/03/02 02:26:10;;;;;;;43.23;25.70;;;;;;;-1.38;85.73;95498.66;5040611;28;20200;-77
2023/03/02 02:29:03;;;;;;;47.07;24.90;;;;;;;-1.42;85.39;95495.44;5017494;28;20189;-78
2023/03/02 02:31:38;;;;;;;41.10;25.20;;;;;;;-1.37;85.95;95490.13;5009736;28;20211;-78
2023/03/02 02:34:26;;;;;;;46.53;26.80;;;;;;;-1.46;85.64;95489.66;5033711;28;20202;-77
2023/03/02 02:36:55;;;;;;;46.53;26.30;;;;;;;-1.40;85.72;95493.66;5024570;28;20185;-76
2023/03/02 02:39:23;;;;;;;44.67;25.23;;;;;;;-1.41;85.79;95486.91;5034708;28;20201;-78
2023/03/02 02:41:50;;;;;;;47.20;26.40;;;;;;;-1.50;86.59;95485.66;5015232;28;20192;-78
2023/03/02 02:44:17;;;;;;;44.17;25.73;;;;;;;-1.45;86.40;95486.22;5029403;28;20782;-77
2023/03/02 02:46:43;;;;;;;45.30;27.43;;;;;;;-1.46;85.42;95483.75;5022151;28;20188;-77
2023/03/02 02:49:25;;;;;;;41.90;24.27;;;;;;;-1.38;85.75;95485.94;5013258;28;20182;-77
2023/03/02 02:51:50;;;;;;;43.63;25.70;;;;;;;-1.52;85.82;95489.97;5033655;28;20183;-77
2023/03/02 02:54:17;;;;;;;41.70;25.13;;;;;;;-1.50;86.11;95492.47;5013455;28;20675;-78
2023/03/02 02:56:43;;;;;;;45.07;26.20;;;;;;;-1.55;86.57;95491.84;5040485;28;20200;-76
2023/03/02 02:59:32;;;;;;;47.40;26.97;;;;;;;-1.52;85.91;95489.97;5016135;28;20183;-77
2023/03/02 03:01:58;;;;;;;48.87;27.10;;;;;;;-1.62;85.58;95481.13;5031120;28;20196;-78
2023/03/02 03:04:28;;;;;;;44.90;26.77;;;;;;;-1.63;85.88;95483.78;5028314;28;20212;-79
2023/03/02 03:06:54;;;;;;;46.43;26.43;;;;;;;-1.65;86.22;95486.41;5036617;28;20589;-77
2023/03/02 03:09:20;;;;;;;45.07;25.90;;;;;;;-1.69;86.43;95484.06;5009261;28;20229;-78
2023/03/02 03:11:49;;;;;;;43.43;26.10;;;;;;;-1.70;87.17;95490.88;5024789;28;20194;-78
2023/03/02 03:14:28;;;;;;;47.50;27.53;;;;;;;-1.71;87.16;95484.97;5024504;28;20575;-78
2023/03/02 03:16:54;;;;;;;46.70;27.73;;;;;;;-1.69;86.66;95489.97;5028013;28;20179;-77
2023/03/02 03:19:25;;;;;;;45.70;27.77;;;;;;;-1.80;87.05;95487.13;5035594;28;20269;-76
2023/03/02 03:21:55;;;;;;;46.83;28.40;;;;;;;-1.87;87.82;95489.16;5021919;28;20274;-78
2023/03/02 03:24:21;;;;;;;48.33;27.93;;;;;;;-1.80;87.39;95480.31;5039896;28;20199;-77
2023/03/02 03:26:46;;;;;;;50.27;27.93;;;;;;;-1.81;87.04;95481.22;5033083;28;20191;-78
2023/03/02 03:29:12;;;;;;;48.43;27.37;;;;;;;-1.83;87.58;95475.38;5025846;28;20680;-78
2023/03/02 03:31:38;;;;;;;51.50;28.23;;;;;;;-1.81;87.40;95476.13;5018757;28;20405;-77
2023/03/02 03:34:04;;;;;;;46.10;27.43;;;;;;;-1.87;87.11;95475.59;5032363;28;20203;-77
2023/03/02 03:36:30;;;;;;;50.83;28.47;;;;;;;-1.88;87.37;95471.41;5008822;28;20185;-77
2023/03/02 03:38:56;;;;;;;45.40;25.80;;;;;;;-1.83;87.67;95477.13;5008692;28;20184;-77
2023/03/02 03:41:22;;;;;;;44.57;26.87;;;;;;;-1.89;87.15;95473.13;5005660;28;20187;-77
2023/03/02 03:43:47;;;;;;;41.43;25.30;;;;;;;-1.84;87.50;95472.91;5020531;28;20278;-76
2023/03/02 03:46:12;;;;;;;48.77;27.73;;;;;;;-1.85;87.83;95472.09;5015337;28;20199;-77
2023/03/02 03:48:38;;;;;;;46.33;26.50;;;;;;;-1.88;87.30;95474.78;5018398;28;20190;-77
2023/03/02 03:51:03;;;;;;;49.47;27.23;;;;;;;-1.87;87.87;95478.16;5008166;28;20193;-77
2023/03/02 03:53:29;;;;;;;52.03;28.07;;;;;;;-1.90;88.33;95480.84;5022598;28;20210;-77
2023/03/02 03:55:55;;;;;;;47.70;28.17;;;;;;;-1.93;89.41;95481.00;5019934;28;20212;-77
2023/03/02 03:58:21;;;;;;;40.17;25.50;;;;;;;-1.84;88.32;95488.19;5027933;28;20184;-77
2023/03/02 04:00:47;;;;;;;45.20;26.23;;;;;;;-1.87;88.31;95485.78;5044263;28;20194;-76
2023/03/02 04:03:14;;;;;;;52.37;28.17;;;;;;;-1.79;87.62;95486.22;5024988;28;20225;-76
2023/03/02 04:05:39;;;;;;;44.43;26.43;;;;;;;-1.82;87.77;95491.47;5033490;28;20360;-77
2023/03/02 04:08:05;;;;;;;45.17;26.50;;;;;;;-1.89;88.20;95492.66;5013590;28;20648;-77
2023/03/02 04:10:30;;;;;;;48.03;29.27;;;;;;;-1.93;88.25;95502.19;5011888;28;20876;-77
2023/03/02 04:12:56;;;;;;;47.27;27.30;;;;;;;-2.02;88.88;95488.19;5020121;28;20663;-77
2023/03/02 04:15:21;;;;;;;51.57;27.87;;;;;;;-1.98;88.82;95498.22;5007063;28;20337;-77
2023/03/02 04:17:46;;;;;;;48.77;29.20;;;;;;;-2.00;89.14;95491.47;5029949;28;20193;-79
2023/03/02 04:20:16;;;;;;;52.13;29.47;;;;;;;-1.91;88.58;95495.28;5026201;28;20185;-77
2023/03/02 04:22:46;;;;;;;45.30;27.17;;;;;;;-1.90;87.71;95504.56;5024068;28;20173;-76
2023/03/02 04:25:12;;;;;;;46.30;26.70;;;;;;;-1.85;87.66;95500.09;5032875;28;20290;-76
2023/03/02 04:27:38;;;;;;;48.23;28.10;;;;;;;-1.90;87.97;95491.03;5024927;28;20194;-77
2023/03/02 04:30:05;;;;;;;54.20;29.43;;;;;;;-1.93;88.52;95491.19;5017462;28;20185;-77
2023/03/02 04:32:30;;;;;;;51.33;29.43;;;;;;;-1.89;88.74;95497.75;5007221;28;20205;-77
2023/03/02 04:34:55;;;;;;;54.30;29.60;;;;;;;-1.90;87.30;95496.94;5023522;28;20213;-77
2023/03/02 04:37:20;;;;;;;49.13;27.60;;;;;;;-1.98;87.40;95493.13;5002305;28;20198;-77
2023/03/02 04:39:50;;;;;;;49.83;27.00;;;;;;;-1.97;87.73;95497.31;5023206;28;20195;-77
2023/03/02 04:42:15;;;;;;;46.73;26.50;;;;;;;-1.98;88.49;95491.41;5027519;28;20231;-77
2023/03/02 04:44:42;;;;;;;47.50;28.73;;;;;;;-2.00;88.42;95496.56;5029303;28;20269;-77
2023/03/02 04:47:09;;;;;;;44.70;25.80;;;;;;;-2.02;88.05;95495.81;5017714;28;20527;-77
2023/03/02 04:49:34;;;;;;;44.43;26.37;;;;;;;-2.10;88.54;95499.63;5033987;28;20185;-78
2023/03/02 04:51:59;;;;;;;48.07;28.17;;;;;;;-2.04;88.44;95495.03;5029328;28;20195;-78
2023/03/02 04:54:25;;;;;;;51.00;27.30;;;;;;;-2.07;87.91;95490.09;5025137;28;20220;-77
2023/03/02 04:56:51;;;;;;;44.23;26.37;;;;;;;-2.07;88.54;95492.66;5030433;28;20185;-77
2023/03/02 04:59:18;;;;;;;45.80;26.47;;;;;;;-2.17;88.03;95486.34;5031069;28;20262;-78
2023/03/02 05:01:45;;;;;;;52.97;29.23;;;;;;;-2.17;89.00;95483.00;5039117;28;20185;-77
2023/03/02 05:04:10;;;;;;;50.77;26.93;;;;;;;-2.18;88.54;95491.53;5026585;28;20198;-78
2023/03/02 05:06:35;;;;;;;47.07;27.30;;;;;;;-2.23;87.82;95486.63;5012297;28;20587;-78
2023/03/02 05:09:01;;;;;;;52.77;28.63;;;;;;;-2.21;88.41;95486.56;5011526;28;20194;-77
2023/03/02 05:11:26;;;;;;;52.43;27.67;;;;;;;-2.28;88.73;95488.59;5026904;28;20237;-76
2023/03/02 05:13:54;;;;;;;48.00;27.50;;;;;;;-2.26;88.29;95484.25;5012978;28;20234;-77
2023/03/02 05:16:21;;;;;;;47.17;26.00;;;;;;;-2.28;88.98;95486.88;5024917;28;20306;-76
2023/03/02 05:18:46;;;;;;;49.30;26.93;;;;;;;-2.25;88.87;95490.16;5035502;28;20178;-79
2023/03/02 05:21:13;;;;;;;50.20;27.97;;;;;;;-2.25;88.99;95490.97;5003380;28;20190;-76
2023/03/02 05:23:39;;;;;;;51.37;26.90;;;;;;;-2.23;89.25;95491.72;5032940;28;20271;-77
2023/03/02 05:26:04;;;;;;;49.13;26.80;;;;;;;-2.18;88.89;95494.88;5020550;28;20687;-77
2023/03/02 05:28:30;;;;;;;49.90;27.17;;;;;;;-2.24;88.51;95492.63;5016145;28;20195;-77
2023/03/02 05:30:55;;;;;;;49.60;27.33;;;;;;;-2.26;88.47;95483.44;5011905;28;20187;-77
2023/03/02 05:33:20;;;;;;;49.80;27.80;;;;;;;-2.32;88.26;95489.59;5024987;28;20211;-78
2023/03/02 05:35:46;;;;;;;50.37;26.97;;;;;;;-2.30;89.37;95486.13;5007117;28;20973;-77
2023/03/02 05:38:12;;;;;;;49.37;27.93;;;;;;;-2.23;88.77;95484.09;5020104;28;20184;-76
2023/03/02 05:40:38;;;;;;;50.83;27.47;;;;;;;-2.30;88.04;95480.19;5010917;28;20210;-78
2023/03/02 05:43:04;;;;;;;46.80;27.23;;;;;;;-2.30;88.36;95482.72;5043103;28;20210;-77
2023/03/02 05:45:31;;;;;;;48.60;25.27;;;;;;;-2.39;88.21;95473.81;5022908;28;20203;-78
2023/03/02 05:47:57;;;;;;;47.53;28.37;;;;;;;-2.38;88.35;95479.75;5038835;28;20212;-77
2023/03/02 05:50:22;;;;;;;44.37;25.97;;;;;;;-2.44;88.49;95477.47;5029108;28;20195;-76
2023/03/02 05:52:47;;;;;;;48.83;27.40;;;;;;;-2.44;89.18;95482.56;5017245;28;20217;-77
2023/03/02 05:55:14;;;;;;;49.77;27.87;;;;;;;-2.33;88.84;95487.97;5030133;28;20214;-77
2023/03/02 05:57:39;;;;;;;45.10;26.47;;;;;;;-2.39;88.12;95488.25;5020961;28;20183;-77
2023/03/02 06:00:06;;;;;;;47.03;27.90;;;;;;;-2.41;88.24;95487.50;5031344;28;20242;-76
2023/03/02 06:02:31;;;;;;;49.30;27.83;;;;;;;-2.43;87.98;95491.84;5020168;28;20211;-77
2023/03/02 06:04:56;;;;;;;50.10;26.77;;;;;;;-2.43;88.13;95492.66;5017424;28;20215;-76
2023/03/02 06:07:22;;;;;;;50.57;28.83;;;;;;;-2.44;88.45;95490.19;5040292;28;20179;-77
2023/03/02 06:09:48;;;;;;;53.23;27.57;;;;;;;-2.42;88.08;95499.38;5013166;28;20797;-76
2023/03/02 06:12:13;;;;;;;50.33;27.60;;;;;;;-2.41;88.68;95500.22;5020571;28;20182;-79
2023/03/02 06:14:39;;;;;;;47.47;26.70;;;;;;;-2.33;88.42;95495.59;5018828;28;20208;-77
2023/03/02 06:17:04;;;;;;;48.47;29.17;;;;;;;-2.24;88.39;95500.25;5033398;28;20201;-77
2023/03/02 06:19:29;;;;;;;50.13;28.13;;;;;;;-2.19;88.72;95498.34;5023624;28;20190;-77
2023/03/02 06:21:55;;;;;;;50.13;28.50;;;;;;;-2.12;89.02;95503.94;5037781;28;20198;-77
2023/03/02 06:24:20;;;;;;;53.17;29.97;;;;;;;-1.96;88.34;95501.50;5021998;28;20214;-77
2023/03/02 06:26:45;;;;;;;50.43;28.23;;;;;;;-1.88;88.25;95514.69;5037752;28;20448;-78
2023/03/02 06:29:11;;;;;;;46.20;27.13;;;;;;;-1.78;88.02;95511.63;5018603;28;20179;-78
2023/03/02 06:31:36;;;;;;;47.50;28.13;;;;;;;-1.76;88.00;95509.03;5024179;28;20189;-77
2023/03/02 06:34:01;;;;;;;49.47;28.07;;;;;;;-1.62;87.44;95513.41;5043376;28;20214;-77
2023/03/02 06:36:27;;;;;;;53.13;29.30;;;;;;;-1.71;88.14;95518.06;5028458;28;20190;-77
2023/03/02 06:38:52;;;;;;;53.83;28.80;;;;;;;-1.59;87.33;95514.13;5030041;28;20183;-78
2023/03/02 06:41:18;;;;;;;52.77;28.37;;;;;;;-1.50;86.84;95518.75;5043822;28;20183;-78
2023/03/02 06:43:43;;;;;;;50.60;28.83;;;;;;;-1.51;87.00;95522.16;5039783;28;20204;-78
2023/03/02 06:46:08;;;;;;;53.70;28.47;;;;;;;-1.33;86.62;95522.16;5035754;28;20237;-79
2023/03/02 06:48:34;;;;;;;48.97;26.80;;;;;;;-1.34;86.32;95520.53;5016460;28;20191;-79
2023/03/02 06:50:59;;;;;;;45.97;28.03;;;;;;;-1.44;87.01;95525.25;5016753;28;20196;-80
2023/03/02 06:53:24;;;;;;;51.83;28.13;;;;;;;-1.12;85.96;95520.28;5028919;28;20445;-79
2023/03/02 06:55:50;;;;;;;49.13;28.13;;;;;;;-1.16;85.57;95530.59;5032269;28;20267;-80
2023/03/02 06:58:15;;;;;;;42.17;25.50;;;;;;;-1.08;85.73;95522.59;5025737;28;20183;-79
2023/03/02 07:00:40;;;;;;;44.60;25.77;;;;;;;-0.94;85.01;95517.63;5023102;28;20188;-80
2023/03/02 07:03:06;;;;;;;46.30;25.33;;;;;;;-0.87;84.76;95525.78;5027102;28;20184;-80
2023/03/02 07:05:31;;;;;;;44.37;25.70;;;;;;;-0.88;85.18;95529.22;5034515;28;20215;-79
2023/03/02 07:07:57;;;;;;;44.30;25.60;;;;;;;-0.82;84.59;95535.72;5017338;28;20181;-80
2023/03/02 07:10:23;;;;;;;41.93;24.93;;;;;;;-0.85;84.46;95536.72;5033555;28;20176;-79
2023/03/02 07:12:48;;;;;;;47.80;27.00;;;;;;;-0.92;84.49;95531.09;5016412;28;20208;-79
2023/03/02 07:15:13;;;;;;;46.47;25.43;;;;;;;-0.71;84.22;95533.44;5035478;28;20279;-80
2023/03/02 07:17:40;;;;;;;41.37;24.57;;;;;;;-0.66;83.78;95539.94;5026859;28;20193;-78
2023/03/02 07:20:06;;;;;;;48.30;25.70;;;;;;;-0.56;83.63;95540.28;5036844;28;20181;-79
2023/03/02 07:22:32;;;;;;;44.37;25.87;;;;;;;-0.51;83.58;95545.16;5029862;28;20676;-79
2023/03/02 07:24:57;;;;;;;41.17;24.70;;;;;;;-0.41;83.93;95547.16;5049224;28;20215;-80
2023/03/02 07:27:23;;;;;;;44.53;25.13;;;;;;;-0.41;83.39;95544.59;5024897;28;20236;-80
2023/03/02 07:29:48;;;;;;;43.53;24.70;;;;;;;-0.39;82.65;95541.94;5033222;28;20201;-80
2023/03/02 07:32:13;;;;;;;42.20;24.20;;;;;;;-0.27;82.43;95543.84;5033867;28;20192;-80
2023/03/02 07:34:39;;;;;;;39.63;23.53;;;;;;;-0.16;82.18;95539.00;5018684;28;20217;-80
2023/03/02 07:37:04;;;;;;;43.20;23.93;;;;;;;-0.23;81.93;95545.34;5030478;28;20729;-79
2023/03/02 07:39:30;;;;;;;41.03;23.83;;;;;;;-0.11;81.79;95546.41;5046902;28;20190;-80
2023/03/02 07:41:59;;;;;;;43.03;24.57;;;;;;;-0.10;81.39;95548.03;5038597;28;20190;-80
2023/03/02 07:44:25;;;;;;;40.80;23.70;;;;;;;-0.15;81.45;95552.59;5042215;28;20220;-79
2023/03/02 07:46:51;;;;;;;42.67;24.77;;;;;;;-0.13;81.72;95558.44;5044046;28;20202;-80
2023/03/02 07:49:16;;;;;;;40.83;24.73;;;;;;;0.00;80.93;95561.97;5036363;28;20170;-79
2023/03/02 07:51:41;;;;;;;41.77;23.43;;;;;;;0.13;80.69;95555.28;5021797;28;20198;-79
2023/03/02 07:54:07;;;;;;;46.10;24.83;;;;;;;0.18;80.51;95555.88;5041984;28;20205;-80
2023/03/02 07:56:32;;;;;;;42.63;22.70;;;;;;;0.37;80.32;95558.22;5043032;28;20189;-80
2023/03/02 07:58:58;;;;;;;43.50;25.00;;;;;;;0.30;79.88;95561.19;5036402;28;20779;-80
2023/03/02 08:01:23;;;;;;;42.70;23.73;;;;;;;0.38;78.97;95556.47;5013327;28;20193;-81
2023/03/02 08:03:48;;;;;;;39.73;23.43;;;;;;;0.46;79.43;95560.25;5011476;28;20187;-81
2023/03/02 08:06:14;;;;;;;39.93;23.90;;;;;;;0.41;79.15;95559.66;5014074;28;20237;-81
2023/03/02 08:08:39;;;;;;;37.43;22.80;;;;;;;0.50;78.54;95558.34;5033926;28;20183;-80
2023/03/02 08:11:11;;;;;;;38.77;23.63;;;;;;;0.45;78.65;95560.34;5027125;28;20217;-80
2023/03/02 08:13:36;;;;;;;40.70;23.97;;;;;;;0.48;77.82;95563.53;5041535;28;20198;-79
2023/03/02 08:16:04;;;;;;;36.30;22.57;;;;;;;0.63;78.30;95566.16;5036056;28;20230;-80
2023/03/02 08:18:30;;;;;;;40.70;24.80;;;;;;;0.60;78.17;95568.84;5022414;28;20190;-80
2023/03/02 08:20:55;;;;;;;37.70;22.63;;;;;;;0.68;78.01;95567.50;5029534;28;20239;-79
2023/03/02 08:23:21;;;;;;;39.00;22.27;;;;;;;0.78;77.33;95573.75;5026310;28;20186;-79
2023/03/02 08:25:47;;;;;;;41.97;25.00;;;;;;;0.77;77.56;95572.09;5022527;28;20199;-79
2023/03/02 08:28:12;;;;;;;37.23;22.17;;;;;;;0.82;77.32;95575.22;5021947;28;20193;-81
2023/03/02 08:30:37;;;;;;;39.20;23.83;;;;;;;0.86;76.94;95578.41;5037736;28;20186;-81
2023/03/02 08:33:03;;;;;;;37.43;23.30;;;;;;;0.84;76.59;95588.75;5013483;28;20238;-81
2023/03/02 08:35:28;;;;;;;37.93;21.37;;;;;;;0.93;77.24;95578.91;5024103;28;20217;-81
2023/03/02 08:37:53;;;;;;;39.10;22.50;;;;;;;0.93;76.88;95581.47;5021772;28;20214;-79
2023/03/02 08:40:19;;;;;;;36.50;21.40;;;;;;;1.05;76.22;95576.44;5030200;28;20191;-81
2023/03/02 08:42:44;;;;;;;39.83;22.37;;;;;;;1.19;76.09;95578.22;5016668;28;20204;-80
2023/03/02 08:45:09;;;;;;;35.63;20.07;;;;;;;1.28;75.81;95575.09;5035528;28;20588;-80
2023/03/02 08:47:35;;;;;;;34.20;22.00;;;;;;;1.14;75.87;95572.53;5041844;28;20241;-79
2023/03/02 08:50:00;;;;;;;34.27;21.80;;;;;;;1.32;75.35;95576.56;5010988;28;20179;-80
2023/03/02 08:52:25;;;;;;;37.57;21.13;;;;;;;1.17;75.62;95567.25;5025714;28;20219;-80
2023/03/02 08:54:50;;;;;;;37.70;21.50;;;;;;;1.55;75.51;95569.25;5012719;28;20217;-79
2023/03/02 08:57:16;;;;;;;43.17;24.50;;;;;;;1.59;74.61;95569.00;5023430;28;20208;-79
2023/03/02 08:59:41;;;;;;;36.73;22.13;;;;;;;1.55;74.51;95576.94;5031023;28;20566;-80
2023/03/02 09:02:09;;;;;;;31.90;20.63;;;;;;;1.70;74.11;95569.16;5020649;28;20198;-79
2023/03/02 09:04:38;;;;;;;33.43;20.87;;;;;;;1.86;73.63;95565.66;5002230;28;20214;-79
2023/03/02 09:07:03;;;;;;;39.07;20.87;;;;;;;2.06;72.81;95567.81;5024064;28;20225;-79
2023/03/02 09:09:28;;;;;;;31.83;20.50;;;;;;;1.91;73.08;95561.88;5020815;28;20195;-79
2023/03/02 09:11:54;;;;;;;34.40;20.90;;;;;;;2.02;73.22;95561.22;5020790;28;20176;-79
2023/03/02 09:14:19;;;;;;;37.07;22.43;;;;;;;2.04;72.31;95561.97;5022236;28;20223;-79
2023/03/02 09:16:45;;;;;;;33.57;21.00;;;;;;;1.97;72.97;95565.81;5029088;28;20182;-79
2023/03/02 09:19:12;;;;;;;32.17;21.33;;;;;;;2.39;71.41;95559.75;5023636;28;20183;-79
2023/03/02 09:21:37;;;;;;;34.93;22.10;;;;;;;2.30;71.78;95568.03;5024587;28;20714;-79
2023/03/02 09:24:02;;;;;;;34.97;21.47;;;;;;;2.13;72.08;95565.69;5009925;28;20203;-79
2023/03/02 09:26:28;;;;;;;35.60;23.40;;;;;;;2.07;72.07;95566.88;5024244;28;20269;-79
2023/03/02 09:28:54;;;;;;;40.53;23.90;;;;;;;2.47;71.39;95565.22;5021518;28;20178;-80
2023/03/02 09:31:19;;;;;;;36.37;22.23;;;;;;;2.29;72.26;95568.91;5011977;28;20255;-80
2023/03/02 09:33:44;;;;;;;36.93;21.77;;;;;;;2.20;72.27;95570.31;5032685;28;20210;-80
2023/03/02 09:36:12;;;;;;;38.17;22.10;;;;;;;2.65;71.24;95565.78;5021808;28;20199;-80
2023/03/02 09:38:38;;;;;;;40.03;26.10;;;;;;;2.56;70.97;95571.47;5023935;28;20206;-79
2023/03/02 09:41:18;;;;;;;36.03;22.27;;;;;;;2.47;71.30;95569.50;5008325;28;20182;-80
2023/03/02 09:44:09;;;;;;;33.23;20.73;;;;;;;3.08;69.76;95568.88;5023186;28;20191;-80
2023/03/02 09:46:48;;;;;;;40.13;27.23;;;;;;;2.59;71.25;95565.34;5006229;28;20738;-80
2023/03/02 09:49:44;;;;;;;31.87;20.37;;;;;;;3.20;69.88;95569.03;5015793;28;20186;-80
2023/03/02 09:52:20;;;;;;;35.60;22.00;;;;;;;3.24;69.40;95568.69;5035900;28;20187;-78
2023/03/02 09:54:46;;;;;;;35.63;20.60;;;;;;;3.48;69.60;95571.38;5023816;28;20241;-80
2023/03/02 09:57:23;;;;;;;35.07;21.27;;;;;;;3.46;69.23;95574.97;5024803;28;20187;-78
2023/03/02 09:59:58;;;;;;;35.07;21.17;;;;;;;3.77;68.48;95573.69;5006527;28;20928;-79
2023/03/02 10:02:48;;;;;;;35.43;20.50;;;;;;;3.65;68.61;95572.78;5032249;28;20186;-79
2023/03/02 10:05:27;;;;;;;35.33;19.93;;;;;;;4.18;66.58;95569.06;5012996;28;20241;-79
2023/03/02 10:07:52;;;;;;;32.17;20.00;;;;;;;3.93;66.21;95575.09;5043271;28;20191;-78
2023/03/02 10:10:46;;;;;;;35.10;21.57;;;;;;;3.67;66.94;95578.66;5022688;28;20206;-78
2023/03/02 10:13:21;;;;;;;34.67;20.90;;;;;;;3.70;67.58;95584.38;5032215;28;20287;-79
2023/03/02 10:15:57;;;;;;;34.10;20.47;;;;;;;3.81;66.57;95591.38;5029641;28;20237;-80
2023/03/02 10:18:37;;;;;;;32.93;19.57;;;;;;;3.78;67.20;95590.75;5028287;28;20189;-79
2023/03/02 10:21:13;;;;;;;65.87;35.60;;;;;;;3.46;67.58;95586.06;5012826;28;20190;-79
2023/03/02 10:23:55;;;;;;;43.37;25.27;;;;;;;3.60;67.76;95588.50;5020197;28;20196;-79
2023/03/02 10:26:37;;;;;;;36.00;21.63;;;;;;;3.24;68.48;95596.13;5032621;28;20212;-79
2023/03/02 10:29:24;;;;;;;33.20;21.67;;;;;;;3.55;67.65;95593.16;5031514;28;20186;-79
2023/03/02 10:31:58;;;;;;;37.20;22.53;;;;;;;3.71;68.33;95600.63;5033396;28;20206;-80
2023/03/02 10:34:25;;;;;;;35.57;21.87;;;;;;;4.00;67.53;95606.34;5011748;28;20221;-79
2023/03/02 10:36:51;;;;;;;34.30;21.37;;;;;;;3.61;67.00;95597.84;5018442;28;20187;-79
2023/03/02 10:39:16;;;;;;;33.43;20.90;;;;;;;3.74;67.13;95600.41;5009461;28;20188;-78
2023/03/02 10:42:01;;;;;;;34.80;21.03;;;;;;;3.67;67.16;95600.00;5013486;28;20195;-79
2023/03/02 10:44:39;;;;;;;32.97;20.03;;;;;;;3.45;68.91;95601.56;5019225;28;20218;-79
2023/03/02 10:47:06;;;;;;;32.13;20.80;;;;;;;3.75;67.92;95614.09;5016073;28;20229;-79
2023/03/02 10:49:38;;;;;;;36.30;21.03;;;;;;;3.92;67.33;95609.44;5024969;28;20197;-79
2023/03/02 10:52:08;;;;;;;35.07;20.30;;;;;;;3.89;67.91;95607.09;5007800;28;20175;-79
2023/03/02 10:54:35;;;;;;;34.63;21.13;;;;;;;3.93;66.39;95605.09;5002674;28;20581;-79
2023/03/02 10:57:03;;;;;;;32.97;21.10;;;;;;;4.15;67.06;95599.28;5023901;28;20577;-79
2023/03/02 10:59:42;;;;;;;34.00;20.77;;;;;;;4.24;65.88;95596.94;5015004;28;20256;-79
2023/03/02 11:02:15;;;;;;;31.73;19.67;;;;;;;4.29;65.68;95599.16;5034498;28;20180;-79
2023/03/02 11:04:40;;;;;;;34.30;21.40;;;;;;;4.20;66.01;95603.19;5011016;28;20211;-79
2023/03/02 11:07:17;;;;;;;35.13;21.33;;;;;;;4.46;65.25;95597.97;5029639;28;20687;-80
2023/03/02 11:10:04;;;;;;;34.33;20.07;;;;;;;4.74;65.06;95592.47;5028853;28;20193;-80
2023/03/02 11:12:30;;;;;;;36.63;21.80;;;;;;;4.90;63.08;95599.09;5025744;28;20357;-80
2023/03/02 11:15:15;;;;;;;31.53;20.60;;;;;;;5.10;64.48;95603.59;5033523;28;20207;-80
2023/03/02 11:17:42;;;;;;;36.00;22.30;;;;;;;4.99;64.49;95598.41;5035736;28;20180;-81
2023/03/02 11:20:23;;;;;;;32.27;20.70;;;;;;;4.65;64.84;95603.44;5038952;28;20185;-79
2023/03/02 11:23:17;;;;;;;33.50;20.53;;;;;;;5.06;62.67;95609.91;5030692;28;20179;-80